createdAt,value
2019-01-22T00:01:13.900Z,-6.10
2019-01-22T00:03:44.076Z,-5.87
2019-01-22T00:06:15.103Z,-5.84
2019-01-22T00:08:45.504Z,-5.74
2019-01-22T00:11:15.533Z,-5.76
2019-01-22T00:13:46.231Z,-5.94
2019-01-22T00:16:16.221Z,-6.04
2019-01-22T00:18:46.653Z,-6.10
2019-01-22T00:21:16.871Z,-6.08
2019-01-22T00:23:47.351Z,-6.07
2019-01-22T00:26:17.553Z,-6.17
2019-01-22T00:28:47.510Z,-6.17
2019-01-22T00:31:17.443Z,-6.10
2019-01-22T00:33:47.596Z,-6.10
2019-01-22T00:36:17.960Z,-6.32
2019-01-22T00:38:48.709Z,-6.53
2019-01-22T00:41:18.714Z,-6.41
2019-01-22T00:43:48.879Z,-6.53
2019-01-22T00:46:19.193Z,-6.69
2019-01-22T00:48:49.395Z,-6.44
2019-01-22T00:51:19.537Z,-6.34
2019-01-22T00:53:49.448Z,-6.20
2019-01-22T00:56:19.425Z,-6.14
2019-01-22T00:58:49.615Z,-6.03
2019-01-22T01:01:19.571Z,-5.96
2019-01-22T01:03:49.767Z,-5.81
2019-01-22T01:06:20.092Z,-5.86
2019-01-22T01:08:50.363Z,-5.91
2019-01-22T01:15:12.830Z,-5.78
2019-01-22T01:17:42.881Z,-5.95
2019-01-22T01:20:15.727Z,-6.20
2019-01-22T01:26:12.532Z,-6.19
2019-01-22T01:28:42.449Z,-6.49
2019-01-22T01:31:13.901Z,-6.36
2019-01-22T01:33:44.050Z,-6.47
2019-01-22T01:36:13.955Z,-6.70
2019-01-22T01:38:44.123Z,-6.77
2019-01-22T01:41:14.300Z,-6.85
2019-01-22T01:43:44.210Z,-6.80
2019-01-22T01:46:14.710Z,-6.82
2019-01-22T01:48:44.863Z,-6.63
2019-01-22T01:51:15.070Z,-6.60
2019-01-22T01:53:44.978Z,-6.67
2019-01-22T01:56:15.725Z,-6.75
2019-01-22T01:58:45.645Z,-6.67
2019-01-22T02:01:15.534Z,-6.53
2019-01-22T02:03:45.922Z,-6.35
2019-01-22T02:06:15.899Z,-6.27
2019-01-22T02:08:45.778Z,-6.15
2019-01-22T02:11:15.660Z,-6.00
2019-01-22T02:13:55.349Z,-5.87
2019-01-22T02:17:04.320Z,-5.81
2019-01-22T02:20:15.346Z,-5.80
2019-01-22T02:23:38.976Z,-5.73
2019-01-22T02:27:02.951Z,-5.65
2019-01-22T02:30:04.890Z,-5.39
2019-01-22T02:33:24.170Z,-5.22
2019-01-22T02:36:11.051Z,-5.03
2019-01-22T02:39:11.637Z,-5.11
2019-01-22T02:42:14.996Z,-5.06
2019-01-22T02:45:24.217Z,-5.11
2019-01-22T02:48:37.758Z,-4.86
2019-01-22T02:52:12.571Z,-4.79
2019-01-22T02:55:08.954Z,-4.81
2019-01-22T02:58:16.469Z,-4.84
2019-01-22T03:01:33.064Z,-4.75
2019-01-22T03:04:23.718Z,-4.60
2019-01-22T03:07:34.976Z,-4.52
2019-01-22T03:10:27.877Z,-4.53
2019-01-22T03:13:39.849Z,-4.55
2019-01-22T03:17:02.052Z,-4.49
2019-01-22T03:20:07.189Z,-4.49
2019-01-22T03:23:30.862Z,-4.52
2019-01-22T03:26:47.424Z,-4.56
2019-01-22T03:30:01.287Z,-4.56
2019-01-22T03:32:58.183Z,-4.64
2019-01-22T03:36:25.169Z,-4.68
2019-01-22T03:39:18.975Z,-4.77
2019-01-22T03:42:29.534Z,-4.79
2019-01-22T03:45:22.133Z,-4.82
2019-01-22T03:48:42.521Z,-4.84
2019-01-22T03:51:39.158Z,-4.82
2019-01-22T03:54:54.004Z,-4.92
2019-01-22T03:57:42.728Z,-4.88
2019-01-22T04:04:04.166Z,-4.82
2019-01-22T04:06:47.943Z,-4.90
2019-01-22T04:09:32.074Z,-4.85
2019-01-22T04:12:02.870Z,-4.96
2019-01-22T04:14:33.105Z,-4.97
2019-01-22T04:17:03.859Z,-4.90
2019-01-22T04:19:33.769Z,-4.92
2019-01-22T04:22:05.077Z,-4.97
2019-01-22T04:24:50.678Z,-5.02
2019-01-22T04:27:52.676Z,-4.96
2019-01-22T04:30:49.443Z,-4.99
2019-01-22T04:34:02.774Z,-5.12
2019-01-22T04:37:39.273Z,-5.24
2019-01-22T04:41:11.506Z,-5.29
2019-01-22T04:44:21.716Z,-5.22
2019-01-22T04:47:55.181Z,-5.22
2019-01-22T04:51:23.975Z,-5.21
2019-01-22T04:54:30.026Z,-5.45
2019-01-22T04:57:41.309Z,-5.46
2019-01-22T05:00:40.323Z,-5.53
2019-01-22T05:03:40.955Z,-5.49
2019-01-22T05:07:19.092Z,-5.23
2019-01-22T05:10:43.275Z,-5.27
2019-01-22T05:14:04.834Z,-5.27
2019-01-22T05:17:18.232Z,-5.41
2019-01-22T05:20:31.571Z,-5.21
2019-01-22T05:23:38.418Z,-5.27
2019-01-22T05:26:44.291Z,-5.44
2019-01-22T05:30:16.497Z,-5.57
2019-01-22T05:33:21.567Z,-5.60
2019-01-22T05:36:04.328Z,-5.78
2019-01-22T05:39:48.175Z,-5.72
2019-01-22T05:43:06.187Z,-5.63
2019-01-22T05:46:44.653Z,-5.67
2019-01-22T05:49:43.370Z,-5.66
2019-01-22T05:53:06.337Z,-5.74
2019-01-22T05:55:41.196Z,-5.73
2019-01-22T05:59:20.473Z,-5.87
2019-01-22T06:06:13.381Z,-6.32
2019-01-22T06:09:16.558Z,-6.56
2019-01-22T06:12:41.130Z,-6.66
2019-01-22T06:15:54.561Z,-6.74
2019-01-22T06:19:17.865Z,-6.49
2019-01-22T06:22:46.878Z,-6.42
2019-01-22T06:25:36.228Z,-6.81
2019-01-22T06:28:40.957Z,-6.90
2019-01-22T06:31:53.345Z,-6.62
2019-01-22T06:34:55.774Z,-6.61
2019-01-22T06:38:01.485Z,-6.91
2019-01-22T06:41:18.401Z,-6.80
2019-01-22T06:44:34.668Z,-6.94
2019-01-22T06:47:34.011Z,-6.83
2019-01-22T06:50:59.649Z,-6.93
2019-01-22T06:54:14.392Z,-6.66
2019-01-22T06:57:40.315Z,-6.51
2019-01-22T07:00:54.475Z,-6.43
2019-01-22T07:04:09.400Z,-6.40
2019-01-22T07:07:19.053Z,-6.28
2019-01-22T07:10:34.756Z,-6.20
2019-01-22T07:13:59.454Z,-6.21
2019-01-22T07:17:19.503Z,-6.10
2019-01-22T07:20:47.378Z,-6.01
2019-01-22T07:23:28.376Z,-5.68
2019-01-22T07:26:40.308Z,-5.51
2019-01-22T07:29:56.202Z,-5.49
2019-01-22T07:33:03.084Z,-5.39
2019-01-22T07:35:49.419Z,-5.20
2019-01-22T07:39:13.392Z,-5.21
2019-01-22T07:42:07.020Z,-5.28
2019-01-22T07:44:56.029Z,-5.39
2019-01-22T07:48:04.967Z,-5.38
2019-01-22T07:51:28.817Z,-5.37
2019-01-22T07:54:45.808Z,-5.31
2019-01-22T07:58:06.902Z,-5.14
2019-01-22T08:02:04.795Z,-4.98
2019-01-22T08:05:17.310Z,-4.86
2019-01-22T08:08:34.386Z,-4.73
2019-01-22T08:11:47.384Z,-4.67
2019-01-22T08:14:50.440Z,-4.53
2019-01-22T08:18:03.018Z,-4.46
2019-01-22T08:27:23.007Z,-4.42
2019-01-22T08:30:41.974Z,-4.35
2019-01-22T08:34:07.034Z,-4.18
2019-01-22T08:37:17.970Z,-4.11
2019-01-22T08:40:42.870Z,-4.17
2019-01-22T08:43:37.985Z,-4.02
2019-01-22T08:47:07.498Z,-3.94
2019-01-22T08:50:25.394Z,-3.94
2019-01-22T08:53:14.324Z,-4.03
2019-01-22T08:56:30.904Z,-3.86
2019-01-22T09:00:00.979Z,-3.83
2019-01-22T09:03:08.864Z,-3.70
2019-01-22T09:06:30.621Z,-3.33
2019-01-22T09:09:26.411Z,-3.31
2019-01-22T09:12:28.073Z,-3.10
2019-01-22T09:15:25.957Z,-2.72
2019-01-22T09:18:34.094Z,-2.77
2019-01-22T09:21:54.448Z,-2.80
2019-01-22T09:24:44.057Z,-2.55
2019-01-22T09:28:19.188Z,-2.36
2019-01-22T09:30:59.168Z,-2.02
2019-01-22T09:34:24.604Z,-2.10
2019-01-22T09:37:34.363Z,-1.87
2019-01-22T09:40:05.855Z,-1.71
2019-01-22T09:42:36.087Z,-1.30
2019-01-22T09:45:08.649Z,-1.94
2019-01-22T09:47:38.844Z,-1.68
2019-01-22T09:50:09.699Z,-1.27
2019-01-22T09:52:39.919Z,-1.06
2019-01-22T09:55:12.133Z,-0.40
2019-01-22T09:57:42.866Z,-0.05
2019-01-22T10:00:15.985Z,-0.26
2019-01-22T10:02:45.920Z,-0.34
2019-01-22T10:05:16.229Z,-0.38
2019-01-22T10:07:46.137Z,0.33
2019-01-22T10:10:19.045Z,0.18
2019-01-22T10:12:49.258Z,0.41
2019-01-22T10:15:21.346Z,0.54
2019-01-22T10:17:51.311Z,0.78
2019-01-22T10:20:23.352Z,0.38
2019-01-22T10:22:53.404Z,1.01
2019-01-22T10:25:29.379Z,0.47
2019-01-22T10:27:55.440Z,0.33
2019-01-22T10:30:26.468Z,0.39
2019-01-22T10:32:56.365Z,0.32
2019-01-22T10:35:26.474Z,-0.02
2019-01-22T10:37:56.769Z,0.06
2019-01-22T10:40:27.538Z,0.47
2019-01-22T10:42:58.087Z,0.98
2019-01-22T10:45:28.006Z,1.26
2019-01-22T10:47:58.265Z,0.97
2019-01-22T10:50:28.464Z,0.75
2019-01-22T10:52:58.542Z,0.70
2019-01-22T10:55:28.841Z,0.70
2019-01-22T10:57:58.813Z,0.29
2019-01-22T11:00:31.265Z,0.18
2019-01-22T11:03:01.799Z,0.27
2019-01-22T11:09:23.425Z,0.38
2019-01-22T11:19:00.380Z,0.77
2019-01-22T11:21:30.412Z,0.76
2019-01-22T11:24:00.794Z,0.77
2019-01-22T11:26:31.087Z,0.72
2019-01-22T11:29:01.240Z,1.02
2019-01-22T11:31:31.151Z,1.23
2019-01-22T11:34:01.196Z,0.51
2019-01-22T11:36:31.342Z,0.71
2019-01-22T11:39:01.284Z,0.72
2019-01-22T11:41:31.517Z,0.66
2019-01-22T11:44:01.934Z,0.78
2019-01-22T11:46:32.090Z,0.87
2019-01-22T11:49:01.982Z,0.47
2019-01-22T11:51:32.131Z,0.14
2019-01-22T11:54:02.065Z,0.30
2019-01-22T11:56:31.991Z,0.41
2019-01-22T11:59:02.167Z,0.54
2019-01-22T12:01:32.313Z,0.71
2019-01-22T12:04:02.511Z,0.80
2019-01-22T12:06:32.648Z,1.11
2019-01-22T12:09:04.326Z,0.96
2019-01-22T12:11:34.230Z,0.88
2019-01-22T12:14:04.373Z,1.14
2019-01-22T12:16:34.861Z,1.65
2019-01-22T12:19:04.864Z,1.94
2019-01-22T12:21:35.095Z,1.95
2019-01-22T12:24:05.888Z,1.86
2019-01-22T12:26:36.080Z,1.81
2019-01-22T12:29:06.702Z,1.81
2019-01-22T12:31:36.983Z,2.22
2019-01-22T12:34:07.354Z,2.88
2019-01-22T12:36:37.276Z,3.07
2019-01-22T12:39:09.533Z,2.77
2019-01-22T12:41:39.612Z,2.95
2019-01-22T12:44:10.684Z,3.09
2019-01-22T12:46:40.840Z,3.39
2019-01-22T12:49:11.961Z,2.60
2019-01-22T12:51:42.085Z,2.65
2019-01-22T12:54:12.352Z,1.67
2019-01-22T12:56:42.403Z,1.64
2019-01-22T12:59:12.353Z,2.18
2019-01-22T13:01:42.575Z,2.97
2019-01-22T13:04:13.148Z,3.12
2019-01-22T13:06:43.162Z,3.34
2019-01-22T13:09:13.107Z,3.28
2019-01-22T13:11:43.011Z,3.79
2019-01-22T13:14:16.442Z,3.92
2019-01-22T13:16:45.329Z,3.71
2019-01-22T13:19:15.220Z,3.43
2019-01-22T13:21:45.122Z,3.12
2019-01-22T13:24:15.051Z,2.10
2019-01-22T13:26:44.941Z,2.11
2019-01-22T13:40:37.945Z,1.31
2019-01-22T13:43:08.391Z,1.73
2019-01-22T13:45:38.872Z,1.88
2019-01-22T13:48:12.920Z,1.75
2019-01-22T13:50:42.811Z,1.89
2019-01-22T13:53:12.755Z,1.70
2019-01-22T13:55:42.716Z,2.00
2019-01-22T13:58:12.968Z,1.77
2019-01-22T14:00:42.981Z,1.50
2019-01-22T14:04:10.288Z,1.48
2019-01-22T14:06:40.475Z,1.58
2019-01-22T14:09:10.781Z,1.79
2019-01-22T14:11:40.791Z,1.95
2019-01-22T14:14:11.352Z,1.69
2019-01-22T14:16:41.338Z,1.63
2019-01-22T14:19:11.367Z,1.75
2019-01-22T14:21:41.861Z,1.84
2019-01-22T14:24:12.185Z,1.73
2019-01-22T14:26:42.670Z,1.65
2019-01-22T14:29:12.590Z,1.56
2019-01-22T14:31:42.728Z,1.81
2019-01-22T14:34:13.047Z,1.87
2019-01-22T14:36:43.293Z,1.95
2019-01-22T14:39:14.038Z,1.80
2019-01-22T14:41:44.441Z,1.49
2019-01-22T14:44:14.337Z,1.51
2019-01-22T14:46:44.249Z,1.42
2019-01-22T14:49:14.317Z,1.32
2019-01-22T14:51:44.810Z,0.96
2019-01-22T14:54:14.694Z,0.96
2019-01-22T14:56:44.589Z,0.90
2019-01-22T14:59:14.509Z,0.78
2019-01-22T15:01:44.738Z,0.60
2019-01-22T15:04:14.829Z,0.46
2019-01-22T15:06:44.811Z,0.45
2019-01-22T15:09:15.369Z,0.58
2019-01-22T15:11:45.471Z,0.60
2019-01-22T15:14:15.383Z,0.66
2019-01-22T15:16:45.312Z,0.50
2019-01-22T15:19:15.366Z,0.48
2019-01-22T15:21:45.697Z,0.47
2019-01-22T15:24:15.665Z,0.41
2019-01-22T15:26:46.128Z,0.30
2019-01-22T15:29:16.109Z,0.27
2019-01-22T15:31:46.014Z,0.18
2019-01-22T15:34:16.351Z,0.10
2019-01-22T15:36:46.617Z,-0.03
2019-01-22T15:39:16.554Z,0.01
2019-01-22T15:41:46.480Z,0.03
2019-01-22T15:44:16.588Z,-0.02
2019-01-22T15:46:46.773Z,-0.09
2019-01-22T15:49:16.701Z,-0.16
2019-01-22T15:51:46.652Z,-0.26
2019-01-22T15:54:16.625Z,-0.26
2019-01-22T15:56:47.345Z,-0.20
2019-01-22T15:59:17.548Z,-0.15
2019-01-22T16:01:47.946Z,-0.18
2019-01-22T16:04:17.903Z,-0.39
2019-01-22T16:06:48.061Z,-0.41
2019-01-22T16:09:18.041Z,-0.41
2019-01-22T16:11:48.266Z,-0.46
2019-01-22T16:14:18.261Z,-0.49
2019-01-22T16:16:48.886Z,-0.59
2019-01-22T16:19:19.072Z,-0.60
2019-01-22T16:21:48.976Z,-0.62
2019-01-22T16:24:20.032Z,-0.72
2019-01-22T16:26:53.443Z,-0.71
2019-01-22T16:29:21.978Z,-0.72
2019-01-22T16:31:51.879Z,-0.75
2019-01-22T16:34:21.791Z,-0.75
2019-01-22T16:36:51.749Z,-0.87
2019-01-22T16:39:21.906Z,-0.92
2019-01-22T16:41:51.960Z,-1.01
2019-01-22T16:44:22.381Z,-1.06
2019-01-22T16:46:52.594Z,-1.09
2019-01-22T16:49:22.572Z,-1.10
2019-01-22T16:51:52.482Z,-1.16
2019-01-22T16:54:22.546Z,-1.09
2019-01-22T16:56:52.808Z,-1.04
2019-01-22T16:59:24.156Z,-1.03
2019-01-22T17:01:54.226Z,-1.09
2019-01-22T17:04:24.771Z,-1.06
2019-01-22T17:06:54.808Z,-1.08
2019-01-22T17:09:25.488Z,-1.14
2019-01-22T17:11:55.752Z,-1.16
2019-01-22T17:14:26.036Z,-1.17
2019-01-22T17:16:56.020Z,-1.15
2019-01-22T17:19:26.458Z,-1.15
2019-01-22T17:21:56.511Z,-1.19
2019-01-22T17:24:29.850Z,-1.13
2019-01-22T17:26:59.975Z,-1.06
2019-01-22T17:29:29.879Z,-1.16
2019-01-22T17:32:17.848Z,-1.13
2019-01-22T17:34:53.921Z,-1.19
2019-01-22T17:37:23.891Z,-1.23
2019-01-22T17:39:54.103Z,-1.37
2019-01-22T17:42:24.598Z,-1.40
2019-01-22T17:44:54.931Z,-1.44
2019-01-22T17:47:25.553Z,-1.47
2019-01-22T17:49:56.055Z,-1.47
2019-01-22T17:52:26.285Z,-1.46
2019-01-22T17:54:58.101Z,-1.47
2019-01-22T17:57:28.129Z,-1.46
2019-01-22T17:59:58.052Z,-1.42
2019-01-22T18:02:34.638Z,-1.45
2019-01-22T18:05:00.265Z,-1.47
2019-01-22T18:07:30.311Z,-1.48
2019-01-22T18:10:01.343Z,-1.44
2019-01-22T18:12:31.372Z,-1.48
2019-01-22T18:15:01.509Z,-1.55
2019-01-22T18:17:31.411Z,-1.62
2019-01-22T18:20:01.333Z,-1.61
2019-01-22T18:22:32.709Z,-1.57
2019-01-22T18:25:02.862Z,-1.50
2019-01-22T18:27:34.177Z,-1.46
2019-01-22T18:30:05.173Z,-1.48
2019-01-22T18:32:35.227Z,-1.48
2019-01-22T18:35:07.409Z,-1.55
2019-01-22T18:37:37.731Z,-1.50
2019-01-22T18:40:10.217Z,-1.52
2019-01-22T18:42:40.207Z,-1.43
2019-01-22T18:45:12.791Z,-1.44
2019-01-22T18:47:42.836Z,-1.55
2019-01-22T18:50:20.101Z,-1.52
2019-01-22T18:52:50.168Z,-1.46
2019-01-22T18:55:20.396Z,-1.44
2019-01-22T18:57:50.387Z,-1.50
2019-01-22T19:00:22.305Z,-1.50
2019-01-22T19:02:53.131Z,-1.56
2019-01-22T19:05:23.097Z,-1.48
2019-01-22T19:07:53.403Z,-1.61
2019-01-22T19:10:26.342Z,-1.53
2019-01-22T19:13:02.259Z,-1.45
2019-01-22T19:15:32.456Z,-1.45
2019-01-22T19:18:02.680Z,-1.53
2019-01-22T19:20:32.910Z,-1.48
2019-01-22T19:23:03.382Z,-1.59
2019-01-22T19:25:33.379Z,-1.60
2019-01-22T19:28:03.485Z,-1.57
2019-01-22T19:30:33.574Z,-1.62
2019-01-22T19:33:03.753Z,-1.62
2019-01-22T19:35:33.803Z,-1.70
2019-01-22T19:38:03.966Z,-1.67
2019-01-22T19:40:34.374Z,-1.68
2019-01-22T19:43:05.136Z,-1.75
2019-01-22T19:45:36.959Z,-1.71
2019-01-22T19:48:07.115Z,-1.76
2019-01-22T19:50:37.053Z,-1.76
2019-01-22T19:53:07.626Z,-1.69
2019-01-22T19:55:37.788Z,-1.67
2019-01-22T19:58:08.320Z,-1.63
2019-01-22T20:00:40.266Z,-1.61
2019-01-22T20:03:11.048Z,-1.63
2019-01-22T20:05:41.083Z,-1.61
2019-01-22T20:08:11.640Z,-1.60
2019-01-22T20:10:41.960Z,-1.65
2019-01-22T20:13:12.073Z,-1.66
2019-01-22T20:15:42.689Z,-1.66
2019-01-22T20:18:12.580Z,-1.67
2019-01-22T20:20:42.969Z,-1.66
2019-01-22T20:23:13.660Z,-1.75
2019-01-22T20:25:43.577Z,-1.72
2019-01-22T20:28:13.974Z,-1.87
2019-01-22T20:30:48.309Z,-1.76
2019-01-22T20:33:16.427Z,-1.80
2019-01-22T20:35:46.908Z,-1.72
2019-01-22T20:38:17.539Z,-1.71
2019-01-22T20:40:48.420Z,-1.77
2019-01-22T20:43:18.413Z,-1.85
2019-01-22T20:45:48.434Z,-1.86
2019-01-22T20:48:19.119Z,-1.90
2019-01-22T20:50:49.265Z,-1.90
2019-01-22T20:53:19.176Z,-1.86
2019-01-22T20:55:49.338Z,-1.75
2019-01-22T20:58:20.046Z,-1.75
2019-01-22T21:00:50.199Z,-1.74
2019-01-22T21:03:20.156Z,-1.80
2019-01-22T21:05:50.209Z,-1.88
2019-01-22T21:08:20.177Z,-1.94
2019-01-22T21:10:50.255Z,-1.88
2019-01-22T21:13:20.939Z,-1.89
2019-01-22T21:15:51.201Z,-1.97
2019-01-22T21:18:22.262Z,-1.96
2019-01-22T21:20:52.166Z,-1.94
2019-01-22T21:23:22.168Z,-2.04
2019-01-22T21:29:44.107Z,-2.10
2019-01-22T21:32:14.452Z,-2.12
2019-01-22T21:34:44.875Z,-2.22
2019-01-22T21:37:15.179Z,-2.21
2019-01-22T21:39:45.089Z,-2.18
2019-01-22T21:42:15.003Z,-2.22
2019-01-22T21:44:45.296Z,-2.23
2019-01-22T21:47:15.510Z,-2.27
2019-01-22T21:49:45.507Z,-2.20
2019-01-22T21:52:15.492Z,-2.24
2019-01-22T21:54:45.585Z,-2.40
2019-01-22T21:57:15.649Z,-2.36
2019-01-22T21:59:45.936Z,-2.51
2019-01-22T22:02:16.204Z,-2.54
2019-01-22T22:04:46.120Z,-2.51
2019-01-22T22:07:16.021Z,-2.50
2019-01-22T22:09:46.340Z,-2.42
2019-01-22T22:12:16.613Z,-2.44
2019-01-22T22:14:46.843Z,-2.35
2019-01-22T22:17:16.938Z,-2.37
2019-01-22T22:19:47.103Z,-2.36
2019-01-22T22:22:17.514Z,-2.34
2019-01-22T22:24:47.688Z,-2.37
2019-01-22T22:31:09.436Z,-2.38
2019-01-22T22:33:39.395Z,-2.23
2019-01-22T22:36:09.308Z,-2.23
2019-01-22T22:38:39.231Z,-2.21
2019-01-22T22:41:09.462Z,-2.19
2019-01-22T22:43:39.619Z,-2.09
2019-01-22T22:46:09.913Z,-2.07
2019-01-22T22:48:40.137Z,-2.14
2019-01-22T22:51:10.971Z,-2.12
2019-01-22T22:57:32.642Z,-1.98
2019-01-22T23:00:03.636Z,-2.08
2019-01-22T23:02:33.532Z,-2.06
2019-01-22T23:08:36.949Z,-2.04
2019-01-22T23:21:28.853Z,-2.26
2019-01-22T23:31:18.206Z,-2.59
2019-01-22T23:33:48.566Z,-2.49
2019-01-22T23:36:21.714Z,-2.38
2019-01-22T23:38:51.926Z,-2.52
2019-01-22T23:41:22.209Z,-2.53
2019-01-22T23:43:52.254Z,-2.38
2019-01-22T23:46:22.791Z,-2.36
2019-01-22T23:48:52.936Z,-2.36
2019-01-22T23:51:22.860Z,-2.32
2019-01-22T23:53:53.734Z,-2.30
2019-01-22T23:56:23.658Z,-2.31
2019-01-22T23:58:53.557Z,-2.34
